23MA weather

Public forecast

Using degrees Fahrenheit for public forecast. Weather courtesy of forecast.io.

Closest aviation weather report (METAR) to Westford Regency Heliport

Closest report is Laurence G Hanscom Field, 8.4 nm (15.6 km) SE. Retrieved 2020/08/13 00:51 UTC (41 minutes ago):

KBED 130051Z 00000KT 10SM CLR 25/19 A3001 RMK AO2 SLP174 T02500194

Closest aviation forecast (TAF) to Westford Regency Heliport

Closest forecast is Laurence G Hanscom Field, 8.4 nm (15.6 km) SE. Retrieved 2020-08-13 00:27 UTC (1 hour ago):

TAF KBED 122324Z 1300/1324 30004KT P6SM SCT250 FM130200 00000KT P6SM SCT250 FM131300 01005KT P6SM SCT250 FM132100 10006KT P6SM BKN250